Time;durP1;ratioP1;P1;durP2;ratioP2;P2;SDS_P1;SDS_P2;PMS_P1;PMS_P2;Temp;Humidity;BMP_temperature;BMP_pressure;BME280_temperature;BME280_humidity;BME280_pressure;Samples;Min_cycle;Max_cycle;Signal;HPM_P1;HPM_P2
2021/01/11 00:02:12;;;;;;;364.63;147.33;;;;;;;-1.21;82.30;99287.24;250583;1152;22926;-78
2021/01/11 00:07:16;;;;;;;402.20;153.50;;;;;;;-1.20;81.69;99278.36;250192;1147;22966;-78
2021/01/11 00:12:19;;;;;;;368.67;136.03;;;;;;;-1.16;83.06;99284.84;250080;1152;22987;-77
2021/01/11 00:17:21;;;;;;;381.33;143.60;;;;;;;-1.12;82.11;99285.23;250491;1147;22919;-78
2021/01/11 00:22:24;;;;;;;346.27;127.90;;;;;;;-1.07;82.91;99275.73;250194;1150;23058;-77
2021/01/11 00:27:26;;;;;;;371.27;143.40;;;;;;;-1.10;82.43;99289.28;250134;1148;23078;-76
2021/01/11 00:32:33;;;;;;;315.80;123.80;;;;;;;-1.08;82.09;99289.09;249983;1147;22932;-78
2021/01/11 00:37:35;;;;;;;317.87;118.50;;;;;;;-1.07;82.89;99293.34;250159;1146;22957;-76
2021/01/11 00:42:38;;;;;;;316.40;118.05;;;;;;;-1.08;82.01;99284.66;250129;1148;22951;-78
2021/01/11 00:47:42;;;;;;;311.27;117.77;;;;;;;-1.06;82.41;99287.88;250186;1147;23015;-79
2021/01/11 00:52:46;;;;;;;318.77;116.10;;;;;;;-0.97;83.55;99292.95;249989;1148;23537;-76
2021/01/11 00:57:53;;;;;;;295.70;109.43;;;;;;;-0.83;83.74;99291.16;250092;1146;25989;-78
2021/01/11 01:02:57;;;;;;;265.90;98.40;;;;;;;-0.68;83.86;99293.61;250336;1153;23009;-79
2021/01/11 01:08:00;;;;;;;287.10;106.33;;;;;;;-0.75;83.50;99289.12;250129;1147;26647;-78
2021/01/11 01:13:03;;;;;;;247.27;97.07;;;;;;;-0.78;81.96;99286.11;249915;1148;22939;-77
2021/01/11 01:18:05;;;;;;;278.80;102.90;;;;;;;-0.80;82.67;99293.38;250204;1148;22982;-79
2021/01/11 01:23:07;;;;;;;238.33;88.20;;;;;;;-0.87;82.12;99275.78;249964;1152;23061;-79
2021/01/11 01:28:09;;;;;;;227.60;87.40;;;;;;;-0.93;82.64;99276.56;249868;1147;23103;-78
2021/01/11 01:33:11;;;;;;;254.10;95.17;;;;;;;-0.99;82.00;99269.49;249974;1152;22953;-78
2021/01/11 01:38:15;;;;;;;259.73;98.10;;;;;;;-0.92;83.35;99264.24;250118;1147;23103;-79
2021/01/11 01:43:17;;;;;;;263.97;98.93;;;;;;;-0.85;82.99;99257.16;250160;1148;23158;-78
2021/01/11 01:48:20;;;;;;;215.27;87.17;;;;;;;-0.73;83.03;99252.09;250323;1148;22941;-79
2021/01/11 01:53:22;;;;;;;282.90;104.80;;;;;;;-0.76;82.44;99241.98;250275;1146;26570;-79
2021/01/11 01:58:26;;;;;;;239.73;91.57;;;;;;;-0.81;82.69;99239.97;250687;1148;22922;-79
2021/01/11 02:03:28;;;;;;;244.93;91.37;;;;;;;-0.88;82.26;99237.33;250385;1152;23048;-79
2021/01/11 02:09:12;;;;;;;228.03;89.10;;;;;;;-0.88;82.39;99239.95;250006;1148;22936;-77
2021/01/11 02:14:23;;;;;;;257.07;93.87;;;;;;;-0.91;82.64;99227.22;250119;1148;22962;-80
2021/01/11 02:19:53;;;;;;;230.50;94.70;;;;;;;-0.91;82.51;99229.02;250537;1148;22929;-79
2021/01/11 02:25:07;;;;;;;234.67;89.45;;;;;;;-0.83;83.85;99228.02;249964;1153;22926;-80
2021/01/11 02:30:13;;;;;;;195.17;74.03;;;;;;;-0.75;83.23;99225.19;250432;1148;22945;-78
2021/01/11 02:35:17;;;;;;;223.03;85.83;;;;;;;-0.71;83.45;99221.94;250149;1151;22945;-76
2021/01/11 02:40:20;;;;;;;202.87;81.20;;;;;;;-0.69;82.77;99227.00;249977;1148;22964;-77
2021/01/11 02:45:22;;;;;;;204.10;78.53;;;;;;;-0.67;83.39;99229.42;250466;1150;22930;-80
2021/01/11 02:50:26;;;;;;;226.37;91.67;;;;;;;-0.68;82.58;99222.56;250216;1148;22967;-79
2021/01/11 02:55:39;;;;;;;202.83;83.57;;;;;;;-0.62;83.27;99213.84;250120;1148;23046;-79
2021/01/11 03:00:45;;;;;;;228.37;85.87;;;;;;;-0.63;82.65;99214.84;250291;1147;23028;-79
2021/01/11 03:05:49;;;;;;;205.55;83.00;;;;;;;-0.68;82.51;99223.36;250324;1148;26536;-77
2021/01/11 03:10:52;;;;;;;203.60;81.60;;;;;;;-0.74;83.17;99209.20;250750;1147;23109;-77
2021/01/11 03:15:54;;;;;;;236.67;85.53;;;;;;;-0.81;82.86;99212.83;250292;1147;22907;-79
2021/01/11 03:20:56;;;;;;;211.67;87.47;;;;;;;-0.88;83.34;99204.96;250454;1148;22975;-78
2021/01/11 03:25:58;;;;;;;225.85;89.50;;;;;;;-0.90;83.18;99196.45;250369;1153;22964;-79
2021/01/11 03:31:00;;;;;;;190.27;73.37;;;;;;;-0.90;83.69;99191.19;250363;1147;22915;-79
2021/01/11 03:36:02;;;;;;;214.33;81.97;;;;;;;-0.92;83.10;99185.34;250433;1148;26388;-79
2021/01/11 03:41:05;;;;;;;199.97;79.47;;;;;;;-0.90;83.36;99180.67;250488;1148;22980;-78
2021/01/11 03:46:08;;;;;;;210.05;81.95;;;;;;;-0.90;83.49;99184.09;250119;1148;26082;-79
2021/01/11 03:51:11;;;;;;;206.53;82.60;;;;;;;-0.77;84.59;99185.94;250284;1147;26386;-80
2021/01/11 03:56:13;;;;;;;201.50;78.73;;;;;;;-0.66;84.35;99183.69;250327;1147;22943;-79
2021/01/11 04:01:15;;;;;;;212.73;80.53;;;;;;;-0.57;83.92;99185.89;250624;1147;23100;-80
2021/01/11 04:06:21;;;;;;;197.93;78.43;;;;;;;-0.46;83.92;99176.56;250493;1150;22944;-79
2021/01/11 04:11:23;;;;;;;229.57;90.63;;;;;;;-0.44;83.97;99178.99;250475;1148;22967;-78
2021/01/11 04:16:25;;;;;;;221.47;85.60;;;;;;;-0.37;84.36;99175.31;251024;1147;23003;-78
2021/01/11 04:21:28;;;;;;;199.40;77.43;;;;;;;-0.31;83.44;99186.84;251035;1148;23178;-80
2021/01/11 04:26:30;;;;;;;206.65;79.40;;;;;;;-0.30;83.50;99187.66;250941;1148;22947;-78
2021/01/11 04:31:32;;;;;;;162.93;65.17;;;;;;;-0.46;83.56;99192.36;250475;1147;23106;-79
2021/01/11 04:36:35;;;;;;;186.73;75.73;;;;;;;-0.56;83.16;99198.05;250563;1149;24600;-77
2021/01/11 04:41:40;;;;;;;211.00;79.00;;;;;;;-0.50;84.36;99182.43;250276;1147;23334;-77
2021/01/11 04:46:43;;;;;;;167.10;64.87;;;;;;;-0.46;83.62;99181.00;250491;1148;22942;-79
2021/01/11 04:51:46;;;;;;;167.10;69.90;;;;;;;-0.55;83.28;99194.38;250452;1148;23401;-80
2021/01/11 04:56:49;;;;;;;176.13;72.90;;;;;;;-0.62;83.85;99193.59;250820;1148;22981;-78
2021/01/11 05:01:51;;;;;;;185.47;76.03;;;;;;;-0.71;83.09;99198.26;250720;1148;22946;-78
2021/01/11 05:07:02;;;;;;;192.67;74.27;;;;;;;-0.80;83.53;99188.15;250576;1148;22939;-80
2021/01/11 05:12:07;;;;;;;;;;;;;;;-0.81;83.41;99189.16;250704;1152;23087;-80
2021/01/11 05:17:10;;;;;;;156.60;62.90;;;;;;;-0.83;83.68;99191.98;250792;1151;21550;-79
2021/01/11 05:22:31;;;;;;;157.10;62.00;;;;;;;-0.87;83.59;99190.78;250928;1147;23046;-78
2021/01/11 05:27:33;;;;;;;168.80;63.67;;;;;;;-0.96;83.47;99190.18;250640;1147;22947;-79
2021/01/11 05:32:35;;;;;;;178.10;71.40;;;;;;;-1.05;84.31;99168.55;250862;1148;22971;-78
2021/01/11 05:37:42;;;;;;;204.30;78.77;;;;;;;-0.98;84.32;99180.88;250570;1152;22949;-79
2021/01/11 05:42:53;;;;;;;162.07;63.50;;;;;;;-0.87;84.09;99180.26;250562;1147;24490;-80
2021/01/11 05:48:06;;;;;;;172.03;66.00;;;;;;;-0.97;83.95;99179.87;250351;1147;22947;-78
2021/01/11 05:53:26;;;;;;;191.57;77.00;;;;;;;-1.11;83.90;99179.05;250398;1147;22964;-79
2021/01/11 05:58:27;;;;;;;202.87;79.93;;;;;;;-1.23;84.05;99177.03;250679;1149;22908;-79
2021/01/11 06:03:31;;;;;;;187.37;73.07;;;;;;;-1.27;84.55;99175.81;250909;1147;22895;-78
2021/01/11 06:08:33;;;;;;;179.80;71.63;;;;;;;-1.27;84.75;99175.02;250685;1152;23700;-79
2021/01/11 06:13:36;;;;;;;196.37;78.47;;;;;;;-1.31;84.16;99176.42;250212;1148;23116;-78
2021/01/11 06:18:39;;;;;;;199.30;79.60;;;;;;;-1.29;84.56;99177.81;250552;1147;22954;-77
2021/01/11 06:23:41;;;;;;;204.23;83.03;;;;;;;-1.32;84.47;99182.69;250353;1148;22932;-77
2021/01/11 06:28:43;;;;;;;178.13;73.03;;;;;;;-1.38;83.79;99189.55;250405;1148;23106;-79
2021/01/11 06:33:45;;;;;;;207.67;81.90;;;;;;;-1.47;84.18;99191.56;250337;1148;22964;-79
2021/01/11 06:38:49;;;;;;;217.33;85.40;;;;;;;-1.46;84.55;99208.93;250142;1148;22961;-79
2021/01/11 06:44:01;;;;;;;205.43;85.00;;;;;;;-1.36;85.16;99213.00;250271;1147;22894;-77
2021/01/11 06:49:05;;;;;;;198.75;78.15;;;;;;;-1.29;84.54;99216.45;250249;1148;22995;-78
2021/01/11 06:54:09;;;;;;;186.37;75.97;;;;;;;-1.18;84.20;99218.48;250599;1146;22953;-77
2021/01/11 06:59:13;;;;;;;177.23;71.90;;;;;;;-1.16;83.70;99219.11;250878;1147;22970;-78
2021/01/11 07:04:45;;;;;;;163.83;64.87;;;;;;;-1.12;84.64;99230.02;252349;1147;22954;-78
2021/01/11 07:09:53;;;;;;;169.27;70.30;;;;;;;-1.15;83.65;99233.05;250860;1147;22980;-76
2021/01/11 07:14:56;;;;;;;194.03;77.03;;;;;;;-1.13;84.51;99226.59;250713;1147;22976;-78
2021/01/11 07:19:59;;;;;;;192.13;72.57;;;;;;;-0.99;84.77;99232.67;251834;1147;22970;-79
2021/01/11 07:25:11;;;;;;;174.33;68.03;;;;;;;-0.85;84.50;99233.48;250927;1147;22893;-78
2021/01/11 07:30:13;;;;;;;185.10;74.40;;;;;;;-0.74;84.70;99235.50;250737;1147;22952;-78
2021/01/11 07:35:16;;;;;;;165.60;67.63;;;;;;;-0.70;83.39;99241.16;250939;1146;22971;-78
2021/01/11 07:40:21;;;;;;;200.00;73.70;;;;;;;-0.79;84.45;99240.56;250188;1148;22950;-77
2021/01/11 07:45:24;;;;;;;195.90;75.57;;;;;;;-0.69;84.45;99237.52;252087;1147;22946;-78
2021/01/11 07:50:30;;;;;;;193.07;76.63;;;;;;;-0.60;83.79;99238.11;251076;1146;22900;-78
2021/01/11 07:55:34;;;;;;;196.85;73.00;;;;;;;-0.51;83.95;99236.91;251005;1147;22948;-77
2021/01/11 08:00:36;;;;;;;207.27;76.63;;;;;;;-0.41;84.01;99231.22;250790;1147;26408;-77
2021/01/11 08:05:38;;;;;;;217.75;77.25;;;;;;;-0.35;84.38;99241.74;251209;1147;23008;-79
2021/01/11 08:10:41;;;;;;;183.13;71.27;;;;;;;-0.26;83.79;99239.70;252201;1129;40441;-80
2021/01/11 08:15:43;;;;;;;183.60;70.90;;;;;;;-0.18;84.39;99220.25;252962;1147;23405;-78
2021/01/11 08:20:46;;;;;;;175.00;66.40;;;;;;;-0.20;83.01;99233.63;250957;1148;23122;-78
2021/01/11 08:25:48;;;;;;;179.03;70.43;;;;;;;-0.30;82.89;99232.42;250944;1148;22970;-80
2021/01/11 08:30:52;;;;;;;182.47;74.03;;;;;;;-0.26;83.13;99244.96;251438;1147;22965;-78
2021/01/11 08:36:17;;;;;;;202.00;76.77;;;;;;;-0.16;83.97;99238.47;250848;1147;24451;-78
2021/01/11 08:41:23;;;;;;;193.30;76.87;;;;;;;0.02;84.25;99246.52;250975;1148;22953;-79
2021/01/11 08:46:55;;;;;;;165.77;64.00;;;;;;;-0.03;82.27;99248.95;251429;1147;22980;-80
2021/01/11 08:52:12;;;;;;;160.77;65.53;;;;;;;-0.20;81.78;99254.69;251191;1148;26386;-78
2021/01/11 08:57:16;;;;;;;161.63;62.53;;;;;;;-0.19;83.13;99261.55;251506;1147;22959;-79
2021/01/11 09:02:29;;;;;;;184.50;69.60;;;;;;;-0.31;81.93;99268.45;250852;1148;22951;-79
2021/01/11 09:07:33;;;;;;;159.00;60.30;;;;;;;-0.35;82.22;99264.61;250575;1148;22984;-78
2021/01/11 09:12:35;;;;;;;195.43;79.40;;;;;;;-0.38;82.99;99265.02;250385;1148;22977;-80
2021/01/11 09:17:38;;;;;;;153.10;62.73;;;;;;;-0.34;83.08;99263.60;250167;1148;23173;-78
2021/01/11 09:22:41;;;;;;;185.10;74.67;;;;;;;-0.32;83.16;99272.13;250272;1148;23049;-79
2021/01/11 09:27:43;;;;;;;171.93;70.27;;;;;;;-0.23;82.74;99275.34;250669;1147;23635;-79
2021/01/11 09:32:46;;;;;;;156.73;63.87;;;;;;;-0.22;82.49;99267.23;251028;1147;22949;-78
2021/01/11 09:37:48;;;;;;;139.83;57.33;;;;;;;-0.22;83.21;99271.70;250666;1147;22963;-78
2021/01/11 09:42:51;;;;;;;121.90;46.50;;;;;;;-0.21;83.62;99268.86;250387;1147;22963;-78
2021/01/11 09:47:53;;;;;;;120.00;46.57;;;;;;;-0.11;82.98;99263.17;250628;1147;22907;-80
2021/01/11 09:52:55;;;;;;;109.67;44.77;;;;;;;0.01;83.04;99260.69;250944;1148;22963;-81
2021/01/11 09:58:01;;;;;;;90.17;37.93;;;;;;;0.10;83.70;99253.36;251692;1146;22990;-79
2021/01/11 10:03:04;;;;;;;99.73;40.67;;;;;;;0.12;82.43;99246.08;251523;1147;22984;-81
2021/01/11 10:08:06;;;;;;;95.63;39.50;;;;;;;0.14;82.96;99246.66;252731;1147;22953;-81
2021/01/11 10:13:08;;;;;;;90.15;36.80;;;;;;;0.24;83.26;99240.95;252200;1147;22970;-79
2021/01/11 10:18:11;;;;;;;78.10;34.80;;;;;;;0.27;82.62;99241.35;250609;1147;22898;-77
2021/01/11 10:23:13;;;;;;;74.00;33.30;;;;;;;0.30;82.48;99232.22;250129;1148;22977;-77
2021/01/11 10:28:15;;;;;;;73.63;30.13;;;;;;;0.31;82.12;99233.84;250690;1147;22949;-78
2021/01/11 10:33:17;;;;;;;69.55;31.15;;;;;;;0.33;81.82;99237.07;253438;1147;23070;-77
2021/01/11 10:38:20;;;;;;;63.80;26.35;;;;;;;0.43;81.51;99223.44;250870;1147;22974;-77
2021/01/11 10:43:22;;;;;;;57.75;24.25;;;;;;;0.43;81.57;99228.71;250662;1147;26398;-78
2021/01/11 10:48:24;;;;;;;48.80;22.13;;;;;;;0.48;82.01;99224.42;250592;1147;22967;-79
2021/01/11 10:53:26;;;;;;;47.93;20.97;;;;;;;0.40;81.69;99206.21;250513;1147;22976;-78
2021/01/11 10:58:28;;;;;;;53.47;20.40;;;;;;;0.47;81.47;99204.34;250151;1148;23096;-80
2021/01/11 11:03:31;;;;;;;58.93;24.50;;;;;;;0.64;81.38;99202.04;250317;1148;23014;-78
2021/01/11 11:08:35;;;;;;;49.27;23.80;;;;;;;0.72;81.69;99194.89;250258;1147;23115;-77
2021/01/11 11:13:42;;;;;;;66.17;30.13;;;;;;;0.76;81.16;99185.53;251196;1147;23355;-79
2021/01/11 11:18:44;;;;;;;54.67;23.67;;;;;;;0.90;80.68;99173.05;250343;1148;22952;-79
2021/01/11 11:23:47;;;;;;;60.10;27.30;;;;;;;0.76;80.64;99169.70;250913;1147;22953;-78
2021/01/11 11:28:49;;;;;;;56.70;24.23;;;;;;;0.75;80.24;99168.08;250924;1148;22911;-78
2021/01/11 11:33:53;;;;;;;60.87;26.43;;;;;;;0.75;80.62;99154.90;250825;1148;22968;-77
2021/01/11 11:38:55;;;;;;;46.53;23.57;;;;;;;1.07;81.28;99157.48;250891;1148;23034;-78
2021/01/11 11:43:57;;;;;;;57.57;25.13;;;;;;;1.15;79.90;99144.81;250421;1148;24593;-77
2021/01/11 11:48:59;;;;;;;49.70;23.30;;;;;;;1.14;79.17;99145.03;250169;1148;22917;-77
2021/01/11 11:54:01;;;;;;;62.73;29.43;;;;;;;1.01;79.24;99144.12;250904;1148;22942;-80
2021/01/11 11:59:05;;;;;;;54.10;24.70;;;;;;;1.10;79.63;99141.22;250736;1148;22920;-82
2021/01/11 12:04:08;;;;;;;62.97;28.00;;;;;;;1.15;79.60;99136.90;251155;1147;23031;-76
2021/01/11 12:09:11;;;;;;;59.47;26.50;;;;;;;1.42;79.85;99130.55;250954;1148;23970;-79
2021/01/11 12:14:14;;;;;;;50.03;24.20;;;;;;;1.54;80.05;99120.88;251410;1148;23008;-77
2021/01/11 12:19:17;;;;;;;61.37;27.77;;;;;;;1.49;79.43;99118.88;251870;1147;22984;-81
2021/01/11 12:24:19;;;;;;;68.80;30.07;;;;;;;1.20;78.06;99125.67;251621;1148;23148;-78
2021/01/11 12:29:22;;;;;;;69.10;30.63;;;;;;;0.94;78.45;99122.27;250268;1145;23079;-79
2021/01/11 12:34:24;;;;;;;64.63;28.27;;;;;;;0.87;78.86;99116.25;250597;1148;22944;-77
2021/01/11 12:39:26;;;;;;;62.80;27.03;;;;;;;0.88;80.05;99098.59;250519;1148;22971;-78
2021/01/11 12:44:28;;;;;;;61.33;26.13;;;;;;;0.91;78.94;99100.78;250332;1148;22955;-79
2021/01/11 12:49:30;;;;;;;59.55;28.20;;;;;;;0.87;80.11;99097.79;250468;1148;22945;-78
2021/01/11 12:54:32;;;;;;;62.45;26.15;;;;;;;0.87;79.83;99089.05;251014;1146;23652;-78
2021/01/11 12:59:35;;;;;;;68.37;26.27;;;;;;;0.75;79.13;99086.33;251006;1147;22918;-79
2021/01/11 13:04:37;;;;;;;69.83;27.47;;;;;;;0.64;79.34;99079.92;250743;1148;23027;-79
2021/01/11 13:09:40;;;;;;;62.90;28.03;;;;;;;0.70;79.93;99086.16;250975;1148;23031;-80
2021/01/11 13:14:43;;;;;;;59.40;25.20;;;;;;;0.79;79.68;99076.97;250707;1148;23001;-79
2021/01/11 13:19:45;;;;;;;59.57;26.20;;;;;;;0.81;79.61;99075.73;251357;1148;23443;-78
2021/01/11 13:24:49;;;;;;;62.05;27.70;;;;;;;0.84;80.05;99072.65;250646;1147;22924;-77
2021/01/11 13:29:51;;;;;;;63.93;30.03;;;;;;;0.88;80.21;99069.58;249916;1148;23004;-75
2021/01/11 13:34:53;;;;;;;64.60;27.20;;;;;;;0.87;80.03;99071.41;250109;1148;23061;-77
2021/01/11 13:39:55;;;;;;;56.57;25.03;;;;;;;0.77;79.35;99065.81;250048;1148;22951;-78
2021/01/11 13:44:57;;;;;;;66.60;30.30;;;;;;;0.59;79.06;99075.30;250423;1148;22935;-79
2021/01/11 13:49:59;;;;;;;55.15;25.75;;;;;;;0.54;79.93;99071.70;250375;1148;22921;-78
2021/01/11 13:55:11;;;;;;;66.70;26.33;;;;;;;0.45;79.94;99076.44;250517;1148;23355;-78
2021/01/11 14:00:16;;;;;;;68.63;28.43;;;;;;;0.31;78.98;99081.80;250448;1147;22945;-79
2021/01/11 14:05:18;;;;;;;68.80;31.03;;;;;;;0.22;80.00;99077.00;250625;1148;22959;-78
2021/01/11 14:10:21;;;;;;;69.10;28.17;;;;;;;0.15;79.41;99077.03;250417;1147;22984;-77
2021/01/11 14:15:25;;;;;;;77.50;32.07;;;;;;;0.06;80.16;99081.75;250158;1148;22977;-78
2021/01/11 14:20:29;;;;;;;71.93;31.80;;;;;;;-0.04;79.96;99076.16;250782;1147;24600;-78
2021/01/11 14:25:31;;;;;;;76.40;33.55;;;;;;;-0.17;79.46;99079.64;250381;1148;24340;-79
2021/01/11 14:30:35;;;;;;;75.00;31.10;;;;;;;-0.28;80.30;99085.57;250161;1148;23073;-78
2021/01/11 14:35:37;;;;;;;73.07;31.90;;;;;;;-0.35;80.66;99081.16;250400;1148;22977;-78
2021/01/11 14:40:39;;;;;;;76.27;33.13;;;;;;;-0.42;81.00;99075.11;250035;1148;23434;-79
2021/01/11 14:45:41;;;;;;;72.07;29.67;;;;;;;-0.47;80.41;99079.39;249914;1148;23006;-77
2021/01/11 14:50:49;;;;;;;78.10;34.25;;;;;;;-0.53;81.04;99079.20;250039;1148;23109;-77
2021/01/11 14:55:52;;;;;;;77.47;31.00;;;;;;;-0.63;80.87;99065.69;250217;1147;23052;-77
2021/01/11 15:01:11;;;;;;;73.07;31.53;;;;;;;-0.70;80.92;99070.13;250669;1147;22952;-77
2021/01/11 15:06:15;;;;;;;76.17;31.20;;;;;;;-0.74;81.26;99063.67;256979;1147;22743;-78
2021/01/11 15:11:17;;;;;;;67.70;29.00;;;;;;;-0.76;81.24;99065.71;256457;1147;22957;-78
2021/01/11 15:16:26;;;;;;;79.37;32.97;;;;;;;-0.86;81.14;99061.68;251027;1148;22969;-78
2021/01/11 15:21:29;;;;;;;81.00;34.13;;;;;;;-1.02;80.94;99054.26;250615;1148;22945;-77
2021/01/11 15:26:31;;;;;;;124.83;49.20;;;;;;;-1.15;80.87;99047.18;249918;1148;23058;-77
2021/01/11 15:31:33;;;;;;;137.80;52.27;;;;;;;-1.27;81.52;99046.21;249785;1148;23006;-77
2021/01/11 15:36:35;;;;;;;121.30;49.60;;;;;;;-1.41;81.64;99035.70;249572;1148;22966;-77
2021/01/11 15:41:38;;;;;;;159.03;66.90;;;;;;;-1.46;81.68;99035.49;249928;1148;22960;-77
2021/01/11 15:46:40;;;;;;;158.63;67.60;;;;;;;-1.50;82.40;99030.86;249443;1148;23030;-78
2021/01/11 15:51:43;;;;;;;245.07;98.47;;;;;;;-1.51;81.95;99026.60;249486;1148;23051;-78
2021/01/11 15:56:48;;;;;;;246.33;104.73;;;;;;;-1.59;82.15;99031.05;249773;1148;23009;-81
2021/01/11 16:01:51;;;;;;;243.90;104.45;;;;;;;-1.62;82.53;99020.16;249875;1148;23080;-78
2021/01/11 16:06:55;;;;;;;273.73;108.90;;;;;;;-1.66;82.30;99013.69;249418;1148;22945;-77
2021/01/11 16:11:59;;;;;;;241.87;102.43;;;;;;;-1.68;83.06;99016.49;249623;1148;22965;-77
2021/01/11 16:17:01;;;;;;;244.80;94.70;;;;;;;-1.72;82.71;99012.69;249799;1148;23021;-78
2021/01/11 16:22:04;;;;;;;218.80;88.40;;;;;;;-1.79;82.55;99006.59;249594;1148;23001;-77
2021/01/11 16:27:06;;;;;;;229.23;89.23;;;;;;;-1.83;82.90;98997.50;249261;1148;22976;-78
2021/01/11 16:32:08;;;;;;;207.70;87.70;;;;;;;-1.93;82.47;98996.11;249324;1148;23042;-76
2021/01/11 16:37:10;;;;;;;233.37;93.77;;;;;;;-2.01;82.88;98998.92;249507;1148;23192;-76
2021/01/11 16:42:12;;;;;;;215.10;87.70;;;;;;;-2.10;83.09;98994.86;249443;1148;22949;-76
2021/01/11 16:47:16;;;;;;;219.73;85.27;;;;;;;-2.10;82.96;98995.69;249505;1148;23415;-79
2021/01/11 16:52:18;;;;;;;229.20;83.03;;;;;;;-2.11;83.43;98980.14;249813;1147;23028;-77
2021/01/11 16:57:20;;;;;;;198.40;78.30;;;;;;;-2.13;83.14;98993.44;249562;1148;26648;-76
2021/01/11 17:02:23;;;;;;;220.83;81.87;;;;;;;-2.13;83.90;98997.89;249631;1147;22997;-74
2021/01/11 17:07:32;;;;;;;213.60;78.03;;;;;;;-2.20;83.01;98987.37;249412;1148;26474;-79
2021/01/11 17:12:39;;;;;;;209.07;76.13;;;;;;;-2.22;83.50;98986.78;249774;1148;22949;-76
2021/01/11 17:17:42;;;;;;;190.83;72.33;;;;;;;-2.24;83.15;98992.23;249613;1148;22952;-76
2021/01/11 17:22:44;;;;;;;182.63;70.97;;;;;;;-2.25;84.16;98985.36;249484;1148;22967;-75
2021/01/11 17:27:46;;;;;;;188.77;70.70;;;;;;;-2.23;83.94;98979.91;249896;1148;22970;-77
2021/01/11 17:32:49;;;;;;;176.07;68.03;;;;;;;-2.27;84.14;98976.89;249445;1148;23433;-76
2021/01/11 17:37:51;;;;;;;182.13;72.70;;;;;;;-2.28;83.38;98972.64;249406;1148;22951;-76
2021/01/11 17:42:54;;;;;;;210.67;80.67;;;;;;;-2.30;83.46;98969.40;249657;1148;22967;-75
2021/01/11 17:47:56;;;;;;;234.67;92.60;;;;;;;-2.32;83.46;98979.30;249855;1148;23001;-77
2021/01/11 17:52:58;;;;;;;278.73;107.53;;;;;;;-2.49;82.67;98967.55;249404;1148;22945;-75
2021/01/11 17:58:00;;;;;;;270.30;101.10;;;;;;;-2.62;82.81;98957.83;249548;1148;22957;-76
2021/01/11 18:03:02;;;;;;;230.87;91.83;;;;;;;-2.67;82.74;98966.30;249420;1148;23119;-76
2021/01/11 18:08:05;;;;;;;220.15;85.45;;;;;;;-2.73;83.42;98959.20;249662;1148;22972;-75
2021/01/11 18:13:07;;;;;;;185.73;76.70;;;;;;;-2.85;82.13;98958.18;249347;1148;23048;-77
2021/01/11 18:18:13;;;;;;;183.40;73.83;;;;;;;-2.98;82.61;98962.36;249393;1148;22948;-75
2021/01/11 18:23:16;;;;;;;216.27;84.00;;;;;;;-3.11;82.37;98951.81;249941;1148;22974;-74
2021/01/11 18:28:18;;;;;;;188.03;76.07;;;;;;;-3.18;82.41;98948.36;249475;1148;22957;-75
2021/01/11 18:33:21;;;;;;;221.70;90.77;;;;;;;-3.24;82.61;98954.38;249418;1148;22906;-74
2021/01/11 18:38:23;;;;;;;193.43;75.70;;;;;;;-3.33;82.52;98946.68;249566;1148;22977;-74
2021/01/11 18:43:25;;;;;;;206.93;77.40;;;;;;;-3.42;83.29;98942.59;249788;1147;22970;-72
2021/01/11 18:48:27;;;;;;;210.77;81.60;;;;;;;-3.49;83.18;98939.13;249775;1148;22970;-75
2021/01/11 18:53:29;;;;;;;186.47;68.00;;;;;;;-3.55;83.01;98935.47;249461;1151;22966;-75
2021/01/11 18:58:34;;;;;;;209.87;82.53;;;;;;;-3.53;83.31;98927.42;249477;1148;22956;-75
2021/01/11 19:03:37;;;;;;;200.63;83.13;;;;;;;-3.53;83.46;98919.56;249546;1148;22971;-75
2021/01/11 19:08:39;;;;;;;192.13;74.37;;;;;;;-3.57;83.31;98919.13;249632;1148;22947;-75
2021/01/11 19:13:42;;;;;;;152.57;58.30;;;;;;;-3.57;83.85;98926.19;249511;1148;22966;-76
2021/01/11 19:18:44;;;;;;;150.35;61.00;;;;;;;-3.53;83.97;98914.32;249401;1148;22963;-76
2021/01/11 19:23:47;;;;;;;159.67;62.30;;;;;;;-3.51;83.72;98913.13;249514;1148;22948;-75
2021/01/11 19:28:49;;;;;;;148.30;57.47;;;;;;;-3.55;83.73;98904.04;249763;1148;22977;-76
2021/01/11 19:33:53;;;;;;;100.03;38.83;;;;;;;-3.64;83.51;98897.33;249726;1148;22973;-75
2021/01/11 19:38:55;;;;;;;95.30;40.37;;;;;;;-3.70;83.30;98892.88;249689;1148;22967;-75
2021/01/11 19:43:58;;;;;;;93.33;36.57;;;;;;;-3.79;84.00;98895.64;249698;1148;22948;-75
2021/01/11 19:49:02;;;;;;;91.20;36.23;;;;;;;-3.86;83.59;98888.73;249439;1148;22951;-75
2021/01/11 19:54:06;;;;;;;81.10;33.87;;;;;;;-3.92;84.05;98884.28;249848;1148;23370;-73
2021/01/11 19:59:08;;;;;;;70.33;31.03;;;;;;;-3.97;83.28;98882.25;249829;1147;25993;-74
2021/01/11 20:04:10;;;;;;;63.65;25.10;;;;;;;-4.02;84.48;98872.33;249625;1148;22948;-75
2021/01/11 20:09:13;;;;;;;61.73;23.83;;;;;;;-4.04;83.94;98871.72;249517;1148;22951;-74
2021/01/11 20:14:16;;;;;;;57.07;23.40;;;;;;;-4.07;84.13;98874.73;249871;1148;23590;-72
2021/01/11 20:19:18;;;;;;;41.23;18.23;;;;;;;-4.06;83.91;98878.94;249530;1148;23808;-72
2021/01/11 20:24:20;;;;;;;40.63;17.67;;;;;;;-4.07;84.30;98866.05;249840;1148;22945;-75
2021/01/11 20:29:23;;;;;;;45.25;18.85;;;;;;;-4.07;83.89;98866.88;249406;1148;22973;-72
2021/01/11 20:34:25;;;;;;;38.33;17.63;;;;;;;-4.07;83.98;98858.20;249428;1148;23957;-74
2021/01/11 20:39:27;;;;;;;36.17;14.97;;;;;;;-4.08;83.80;98846.14;249666;1148;22957;-74
2021/01/11 20:44:30;;;;;;;41.95;16.75;;;;;;;-4.10;84.15;98843.69;249587;1148;23100;-76
2021/01/11 20:49:32;;;;;;;44.10;18.15;;;;;;;-4.12;84.00;98841.27;249596;1148;25979;-75
2021/01/11 20:54:36;;;;;;;46.13;18.17;;;;;;;-4.11;84.29;98829.01;249775;1148;23038;-72
2021/01/11 20:59:38;;;;;;;43.63;19.73;;;;;;;-4.10;83.90;98830.61;249691;1148;23049;-73
2021/01/11 21:04:41;;;;;;;44.03;18.23;;;;;;;-4.15;83.92;98833.01;250040;1148;23039;-74
2021/01/11 21:09:44;;;;;;;43.60;18.77;;;;;;;-4.17;83.72;98830.59;249774;1148;22953;-74
2021/01/11 21:14:46;;;;;;;46.30;19.37;;;;;;;-4.19;83.99;98821.30;249380;1148;23139;-75
2021/01/11 21:19:48;;;;;;;43.17;17.17;;;;;;;-4.20;84.19;98817.06;249417;1148;22977;-76
2021/01/11 21:24:51;;;;;;;41.37;17.93;;;;;;;-4.19;83.83;98790.70;249412;1148;22973;-74
2021/01/11 21:29:54;;;;;;;40.20;17.95;;;;;;;-4.19;84.10;98785.48;249601;1148;22980;-74
2021/01/11 21:34:57;;;;;;;40.23;16.17;;;;;;;-4.19;84.29;98782.06;249684;1148;22976;-76
2021/01/11 21:39:59;;;;;;;38.73;16.00;;;;;;;-4.18;83.92;98775.84;249482;1148;22956;-74
2021/01/11 21:45:01;;;;;;;53.47;22.70;;;;;;;-4.18;84.31;98767.99;249591;1148;22942;-74
2021/01/11 21:50:04;;;;;;;53.00;22.30;;;;;;;-4.19;83.80;98769.78;249780;1148;27334;-74
2021/01/11 21:55:07;;;;;;;48.03;19.37;;;;;;;-4.22;83.98;98759.70;249597;1148;22992;-74
2021/01/11 22:00:09;;;;;;;39.40;17.03;;;;;;;-4.20;83.92;98751.66;249680;1148;23201;-74
2021/01/11 22:05:16;;;;;;;36.23;14.97;;;;;;;-4.19;83.78;98743.63;249557;1148;23068;-72
2021/01/11 22:10:18;;;;;;;38.53;15.63;;;;;;;-4.19;84.17;98733.16;249787;1148;22967;-75
2021/01/11 22:15:20;;;;;;;42.53;18.53;;;;;;;-4.18;83.69;98734.78;249475;1148;22906;-74
2021/01/11 22:20:22;;;;;;;32.00;14.00;;;;;;;-4.18;83.89;98716.47;249659;1148;24454;-71
2021/01/11 22:25:24;;;;;;;34.60;15.10;;;;;;;-4.17;83.80;98720.70;249651;1148;22963;-74
2021/01/11 22:30:26;;;;;;;30.87;13.33;;;;;;;-4.13;84.03;98711.47;249761;1148;23003;-72
2021/01/11 22:35:28;;;;;;;30.33;14.10;;;;;;;-4.12;83.87;98705.21;249894;1148;23077;-75
2021/01/11 22:40:31;;;;;;;34.43;14.20;;;;;;;-4.10;83.54;98712.06;249708;1148;23119;-75
2021/01/11 22:45:34;;;;;;;28.23;13.40;;;;;;;-4.11;83.75;98700.80;249507;1148;22964;-74
2021/01/11 22:50:37;;;;;;;26.77;12.80;;;;;;;-4.11;83.67;98692.95;249731;1147;26397;-71
2021/01/11 22:55:56;;;;;;;28.30;12.60;;;;;;;-4.11;83.43;98687.72;249537;1148;23109;-71